Time;durP1;ratioP1;P1;durP2;ratioP2;P2;SDS_P1;SDS_P2;PMS_P1;PMS_P2;Temp;Humidity;BMP_temperature;BMP_pressure;BME280_temperature;BME280_humidity;BME280_pressure;Samples;Min_cycle;Max_cycle;Signal;HPM_P1;HPM_P2
2021/10/14 00:01:18;;;;;;;3.13;2.33;;;;;;;;;;4989055;28;20205;-75
2021/10/14 00:03:45;;;;;;;5.90;2.88;;;;;;;;;;4972730;28;20589;-73
2021/10/14 00:06:13;;;;;;;4.22;2.65;;;;;;;;;;4991952;28;20203;-74
2021/10/14 00:08:40;;;;;;;3.85;2.83;;;;;;;;;;4988139;28;20260;-74
2021/10/14 00:11:07;;;;;;;4.90;2.83;;;;;;;;;;4990986;28;20231;-75
2021/10/14 00:13:34;;;;;;;3.08;2.88;;;;;;;;;;4991340;28;20201;-73
2021/10/14 00:16:01;;;;;;;5.80;3.08;;;;;;;;;;4991970;28;20208;-74
2021/10/14 00:18:28;;;;;;;4.10;2.22;;;;;;;;;;4992588;28;20212;-74
2021/10/14 00:20:56;;;;;;;2.10;1.90;;;;;;;;;;4991428;28;20640;-75
2021/10/14 00:23:24;;;;;;;3.90;2.13;;;;;;;;;;4988894;28;20204;-73
2021/10/14 00:25:51;;;;;;;4.20;2.60;;;;;;;;;;4990547;28;20221;-74
2021/10/14 00:28:18;;;;;;;4.32;2.10;;;;;;;;;;4991224;28;20201;-75
2021/10/14 00:30:45;;;;;;;4.47;3.42;;;;;;;;;;4990565;28;20707;-73
2021/10/14 00:33:12;;;;;;;3.72;2.90;;;;;;;;;;4990668;28;20649;-74
2021/10/14 00:35:39;;;;;;;4.57;2.70;;;;;;;;;;4991110;28;20703;-72
2021/10/14 00:38:06;;;;;;;2.58;2.30;;;;;;;;;;4987061;28;20201;-74
2021/10/14 00:40:35;;;;;;;3.33;2.20;;;;;;;;;;4990596;28;20635;-73
2021/10/14 00:43:02;;;;;;;4.05;2.08;;;;;;;;;;4990713;28;20197;-73
2021/10/14 00:45:29;;;;;;;4.30;2.33;;;;;;;;;;4991427;28;20283;-73
2021/10/14 00:47:56;;;;;;;4.90;2.55;;;;;;;;;;4984007;28;20248;-75
2021/10/14 00:50:24;;;;;;;6.63;2.55;;;;;;;;;;4989989;28;20593;-73
2021/10/14 00:52:52;;;;;;;3.55;1.95;;;;;;;;;;4991643;28;20228;-73
2021/10/14 00:55:19;;;;;;;4.40;2.40;;;;;;;;;;4991902;28;20198;-74
2021/10/14 00:57:47;;;;;;;4.07;2.40;;;;;;;;;;4995814;28;20210;-73
2021/10/14 01:00:14;;;;;;;2.60;2.40;;;;;;;;;;4995300;28;20209;-75
2021/10/14 01:02:42;;;;;;;7.40;2.72;;;;;;;;;;4993587;28;20657;-74
2021/10/14 01:05:09;;;;;;;5.35;2.35;;;;;;;;;;4994864;28;20214;-76
2021/10/14 01:07:36;;;;;;;3.33;2.00;;;;;;;;;;4992651;28;20486;-75
2021/10/14 01:10:04;;;;;;;2.75;2.05;;;;;;;;;;4994816;28;20251;-75
2021/10/14 01:12:32;;;;;;;4.03;2.30;;;;;;;;;;4994135;28;20661;-76
2021/10/14 01:15:00;;;;;;;4.30;2.28;;;;;;;;;;4994916;28;20198;-77
2021/10/14 01:17:27;;;;;;;2.78;2.58;;;;;;;;;;4988005;28;20217;-75
2021/10/14 01:19:55;;;;;;;4.97;1.95;;;;;;;;;;4989251;28;20198;-74
2021/10/14 01:22:22;;;;;;;3.50;1.70;;;;;;;;;;4992049;28;20216;-74
2021/10/14 01:24:49;;;;;;;3.25;2.05;;;;;;;;;;4995407;28;20722;-74
2021/10/14 01:27:16;;;;;;;3.80;2.25;;;;;;;;;;4991651;28;20208;-74
2021/10/14 01:29:43;;;;;;;3.72;2.05;;;;;;;;;;4995145;28;20692;-74
2021/10/14 01:32:10;;;;;;;6.95;2.63;;;;;;;;;;4994220;28;20688;-74
2021/10/14 01:34:37;;;;;;;2.30;1.88;;;;;;;;;;4994611;28;20214;-74
2021/10/14 01:37:06;;;;;;;3.45;2.30;;;;;;;;;;4994292;28;20608;-74
2021/10/14 01:39:33;;;;;;;5.03;2.20;;;;;;;;;;4993949;28;20201;-74
2021/10/14 01:42:00;;;;;;;4.60;2.08;;;;;;;;;;4991074;28;20205;-74
2021/10/14 01:44:27;;;;;;;2.67;2.42;;;;;;;;;;4993338;28;20433;-73
2021/10/14 01:46:54;;;;;;;4.18;2.08;;;;;;;;;;4994055;28;20260;-73
2021/10/14 01:49:21;;;;;;;3.17;1.80;;;;;;;;;;4984989;28;20197;-73
2021/10/14 01:51:48;;;;;;;2.88;1.80;;;;;;;;;;4992755;28;20193;-74
2021/10/14 01:54:17;;;;;;;5.35;2.17;;;;;;;;;;4993983;28;20287;-74
2021/10/14 01:56:44;;;;;;;3.83;2.22;;;;;;;;;;4992436;28;20652;-74
2021/10/14 01:59:11;;;;;;;8.65;2.00;;;;;;;;;;4992072;28;20210;-73
2021/10/14 02:01:38;;;;;;;5.43;2.45;;;;;;;;;;4987712;28;20209;-75
2021/10/14 02:04:05;;;;;;;3.22;2.25;;;;;;;;;;4993943;28;20200;-73
2021/10/14 02:06:32;;;;;;;4.38;2.70;;;;;;;;;;4992988;28;20198;-75
2021/10/14 02:08:59;;;;;;;4.07;3.00;;;;;;;;;;4991896;28;20193;-74
2021/10/14 02:11:27;;;;;;;3.05;2.22;;;;;;;;;;4993493;28;20201;-75
2021/10/14 02:13:54;;;;;;;2.40;2.05;;;;;;;;;;4980980;28;20204;-75
2021/10/14 02:16:21;;;;;;;3.03;2.30;;;;;;;;;;4986452;28;20669;-73
2021/10/14 02:18:48;;;;;;;2.45;1.50;;;;;;;;;;4975231;28;20206;-74
2021/10/14 02:21:17;;;;;;;3.80;2.42;;;;;;;;;;4975240;28;20247;-73
2021/10/14 02:23:44;;;;;;;4.13;2.28;;;;;;;;;;4988473;28;20586;-76
2021/10/14 02:26:11;;;;;;;3.42;2.42;;;;;;;;;;4993944;28;20312;-73
2021/10/14 02:28:40;;;;;;;4.07;2.83;;;;;;;;;;4994559;28;20213;-73
2021/10/14 02:31:07;;;;;;;3.97;3.00;;;;;;;;;;4994419;28;20245;-75
2021/10/14 02:33:34;;;;;;;3.33;3.00;;;;;;;;;;4990222;28;20201;-76
2021/10/14 02:36:01;;;;;;;3.65;2.17;;;;;;;;;;4991725;28;20189;-75
2021/10/14 02:38:28;;;;;;;9.00;3.42;;;;;;;;;;4993597;28;20572;-75
2021/10/14 02:40:55;;;;;;;4.47;3.22;;;;;;;;;;4994018;28;20201;-73
2021/10/14 02:43:22;;;;;;;4.55;2.92;;;;;;;;;;4986668;28;20277;-73
2021/10/14 02:45:50;;;;;;;4.72;3.63;;;;;;;;;;4992732;28;20225;-74
2021/10/14 02:48:17;;;;;;;3.47;3.17;;;;;;;;;;4988132;28;20213;-73
2021/10/14 02:50:44;;;;;;;4.80;3.55;;;;;;;;;;4988889;28;20205;-73
2021/10/14 02:53:11;;;;;;;5.95;4.85;;;;;;;;;;4990686;28;20197;-73
2021/10/14 02:55:38;;;;;;;7.88;5.03;;;;;;;;;;4978894;28;20658;-73
2021/10/14 02:58:05;;;;;;;5.90;3.30;;;;;;;;;;4994113;28;20205;-73
2021/10/14 03:00:32;;;;;;;5.15;3.80;;;;;;;;;;4992830;28;20206;-74
2021/10/14 03:03:01;;;;;;;5.07;4.68;;;;;;;;;;4987719;28;20203;-74
2021/10/14 03:05:28;;;;;;;4.22;3.83;;;;;;;;;;4989493;28;20221;-73
2021/10/14 03:07:55;;;;;;;6.25;4.05;;;;;;;;;;4991341;28;20613;-74
2021/10/14 03:10:22;;;;;;;4.60;4.07;;;;;;;;;;4988357;28;20562;-74
2021/10/14 03:12:49;;;;;;;6.18;4.53;;;;;;;;;;4982779;28;20221;-75
2021/10/14 03:15:16;;;;;;;7.68;4.70;;;;;;;;;;4992454;28;20720;-72
2021/10/14 03:17:43;;;;;;;7.15;5.15;;;;;;;;;;4991845;28;20197;-75
2021/10/14 03:20:12;;;;;;;4.90;4.18;;;;;;;;;;4992623;28;20190;-74
2021/10/14 03:22:39;;;;;;;4.68;4.13;;;;;;;;;;4987979;28;20202;-73
2021/10/14 03:25:07;;;;;;;6.03;4.60;;;;;;;;;;4973763;28;20225;-74
2021/10/14 03:27:34;;;;;;;12.65;6.07;;;;;;;;;;4988490;28;20213;-75
2021/10/14 03:30:01;;;;;;;8.73;5.00;;;;;;;;;;4992422;28;20225;-73
2021/10/14 03:32:28;;;;;;;7.10;4.80;;;;;;;;;;4992138;28;20649;-74
2021/10/14 03:34:55;;;;;;;7.22;5.45;;;;;;;;;;4992210;28;20201;-73
2021/10/14 03:37:24;;;;;;;5.22;4.57;;;;;;;;;;4992536;28;20572;-74
2021/10/14 03:39:51;;;;;;;6.78;4.85;;;;;;;;;;4992437;28;20201;-73
2021/10/14 03:42:20;;;;;;;9.85;4.35;;;;;;;;;;4988937;28;20201;-74
2021/10/14 03:44:47;;;;;;;7.82;5.38;;;;;;;;;;4991012;28;20674;-74
2021/10/14 03:47:14;;;;;;;7.68;4.85;;;;;;;;;;4991758;28;20254;-76
2021/10/14 03:49:41;;;;;;;5.82;5.28;;;;;;;;;;4992620;28;20221;-75
2021/10/14 03:52:08;;;;;;;5.97;4.53;;;;;;;;;;4977980;28;20581;-75
2021/10/14 03:54:36;;;;;;;7.40;6.43;;;;;;;;;;4974217;28;20680;-74
2021/10/14 03:57:04;;;;;;;7.38;5.75;;;;;;;;;;4992287;28;20656;-75
2021/10/14 03:59:31;;;;;;;8.10;7.30;;;;;;;;;;4985400;28;20205;-74
2021/10/14 04:01:58;;;;;;;9.88;4.72;;;;;;;;;;4986393;28;20653;-73
2021/10/14 04:04:25;;;;;;;8.20;6.25;;;;;;;;;;4992458;28;20202;-75
2021/10/14 04:06:52;;;;;;;7.95;6.10;;;;;;;;;;4992038;28;20217;-73
2021/10/14 04:09:19;;;;;;;8.77;6.97;;;;;;;;;;4989423;28;20201;-73
2021/10/14 04:11:47;;;;;;;9.43;6.55;;;;;;;;;;4977652;28;20666;-76
2021/10/14 04:14:14;;;;;;;8.93;6.97;;;;;;;;;;4991346;28;20209;-73
2021/10/14 04:16:41;;;;;;;8.68;6.50;;;;;;;;;;4987791;28;20209;-74
2021/10/14 04:19:08;;;;;;;7.63;6.15;;;;;;;;;;4990637;28;20580;-73
2021/10/14 04:21:37;;;;;;;7.00;6.30;;;;;;;;;;4992280;28;20569;-74
2021/10/14 04:24:05;;;;;;;8.30;5.20;;;;;;;;;;4975909;28;20227;-73
2021/10/14 04:26:32;;;;;;;10.80;8.30;;;;;;;;;;4989754;28;20217;-74
2021/10/14 04:29:00;;;;;;;12.45;7.40;;;;;;;;;;4993679;28;20203;-73
2021/10/14 04:31:27;;;;;;;11.25;8.75;;;;;;;;;;4998287;28;20225;-74
2021/10/14 04:33:54;;;;;;;13.07;7.82;;;;;;;;;;4995398;28;20201;-73
2021/10/14 04:36:21;;;;;;;8.98;6.95;;;;;;;;;;4997207;28;20204;-74
2021/10/14 04:38:49;;;;;;;10.05;6.63;;;;;;;;;;4998590;28;20660;-73
2021/10/14 04:41:16;;;;;;;8.70;7.10;;;;;;;;;;4995791;28;20201;-76
2021/10/14 04:43:43;;;;;;;9.95;6.93;;;;;;;;;;4997102;28;20220;-73
2021/10/14 04:46:11;;;;;;;8.00;7.30;;;;;;;;;;4994744;28;20586;-74
2021/10/14 04:48:38;;;;;;;8.95;8.05;;;;;;;;;;4997575;28;20252;-74
2021/10/14 04:51:05;;;;;;;13.73;9.90;;;;;;;;;;4992900;28;20202;-76
2021/10/14 04:53:32;;;;;;;15.68;9.50;;;;;;;;;;4986851;28;20202;-76
2021/10/14 04:55:59;;;;;;;17.42;9.63;;;;;;;;;;4986606;28;20205;-75
2021/10/14 04:58:26;;;;;;;15.57;11.07;;;;;;;;;;4987055;28;20216;-76
2021/10/14 05:00:53;;;;;;;18.30;12.90;;;;;;;;;;4998724;28;20599;-75
2021/10/14 05:03:22;;;;;;;13.70;9.80;;;;;;;;;;4992372;28;20213;-76
2021/10/14 05:05:49;;;;;;;13.43;10.75;;;;;;;;;;4985770;28;20214;-75
2021/10/14 05:08:16;;;;;;;16.83;10.20;;;;;;;;;;4988908;28;20197;-76
2021/10/14 05:10:43;;;;;;;16.33;11.73;;;;;;;;;;4995543;28;20201;-75
2021/10/14 05:13:10;;;;;;;21.58;13.18;;;;;;;;;;4996523;28;20200;-75
2021/10/14 05:15:39;;;;;;;16.88;11.50;;;;;;;;;;4998350;28;20213;-74
2021/10/14 05:18:07;;;;;;;22.30;14.20;;;;;;;;;;4998188;28;20656;-74
2021/10/14 05:20:35;;;;;;;15.70;12.35;;;;;;;;;;4998538;28;20197;-74
2021/10/14 05:23:02;;;;;;;26.63;16.02;;;;;;;;;;4992575;28;20204;-76
2021/10/14 05:25:29;;;;;;;17.20;14.35;;;;;;;;;;4995490;28;20688;-74
2021/10/14 05:27:57;;;;;;;19.67;13.77;;;;;;;;;;4998411;28;20205;-75
2021/10/14 05:30:24;;;;;;;19.90;12.85;;;;;;;;;;4997679;28;20221;-73
2021/10/14 05:32:51;;;;;;;18.65;14.43;;;;;;;;;;4992533;28;20684;-75
2021/10/14 05:35:18;;;;;;;21.10;13.48;;;;;;;;;;4997840;28;20205;-74
2021/10/14 05:37:47;;;;;;;22.85;14.95;;;;;;;;;;4997169;28;20198;-74
2021/10/14 05:40:14;;;;;;;23.52;13.10;;;;;;;;;;4989512;28;20194;-75
2021/10/14 05:42:41;;;;;;;20.90;13.77;;;;;;;;;;4984331;28;20194;-74
2021/10/14 05:45:10;;;;;;;15.38;11.73;;;;;;;;;;4994203;28;20204;-73
2021/10/14 05:47:37;;;;;;;17.65;11.20;;;;;;;;;;4993202;28;20632;-73
2021/10/14 05:50:04;;;;;;;18.73;12.57;;;;;;;;;;4993787;28;20197;-74
2021/10/14 05:52:31;;;;;;;14.30;11.65;;;;;;;;;;4991735;28;20202;-73
2021/10/14 05:55:00;;;;;;;22.80;12.25;;;;;;;;;;4994882;28;20268;-73
2021/10/14 05:57:27;;;;;;;19.60;14.60;;;;;;;;;;4994548;28;20194;-75
2021/10/14 05:59:55;;;;;;;21.65;14.40;;;;;;;;;;4994016;28;20205;-74
2021/10/14 06:02:22;;;;;;;23.38;14.63;;;;;;;;;;4993241;28;20858;-73
2021/10/14 06:04:50;;;;;;;18.55;13.07;;;;;;;;;;4993661;28;20205;-73
2021/10/14 06:07:17;;;;;;;23.05;13.60;;;;;;;;;;4993490;28;20275;-74
2021/10/14 06:09:44;;;;;;;20.95;13.95;;;;;;;;;;4994816;28;20212;-75
2021/10/14 06:12:12;;;;;;;20.45;14.25;;;;;;;;;;4993825;28;20620;-74
2021/10/14 06:14:40;;;;;;;17.27;13.18;;;;;;;;;;4994701;28;20209;-75
2021/10/14 06:17:07;;;;;;;19.70;13.57;;;;;;;;;;4992265;28;20304;-75
2021/10/14 06:19:34;;;;;;;19.58;12.90;;;;;;;;;;4992426;28;20796;-74
2021/10/14 06:22:01;;;;;;;20.20;12.88;;;;;;;;;;4992915;28;20193;-74
2021/10/14 06:24:28;;;;;;;23.92;13.73;;;;;;;;;;4975842;28;20217;-76
2021/10/14 06:26:55;;;;;;;23.67;15.27;;;;;;;;;;4980418;28;20574;-74
2021/10/14 06:29:24;;;;;;;17.35;12.43;;;;;;;;;;4994051;28;20208;-74
2021/10/14 06:31:51;;;;;;;17.40;12.85;;;;;;;;;;4993026;28;20204;-74
2021/10/14 06:34:18;;;;;;;19.27;12.55;;;;;;;;;;4992424;28;20264;-74
2021/10/14 06:36:45;;;;;;;17.58;12.50;;;;;;;;;;4994192;28;20205;-74
2021/10/14 06:39:12;;;;;;;19.48;13.88;;;;;;;;;;4993947;28;20205;-75
2021/10/14 06:41:39;;;;;;;18.85;13.50;;;;;;;;;;4993909;28;20201;-74
2021/10/14 06:44:07;;;;;;;20.13;15.25;;;;;;;;;;4992176;28;20198;-75
2021/10/14 06:46:36;;;;;;;17.35;13.27;;;;;;;;;;4992764;28;20228;-75
2021/10/14 06:49:03;;;;;;;20.05;13.05;;;;;;;;;;4994432;28;20236;-74
2021/10/14 06:51:30;;;;;;;14.82;11.68;;;;;;;;;;4988394;28;20233;-74
2021/10/14 06:53:57;;;;;;;18.15;14.48;;;;;;;;;;4978600;28;20198;-74
2021/10/14 06:56:24;;;;;;;21.48;14.75;;;;;;;;;;4986913;28;20190;-74
2021/10/14 06:58:51;;;;;;;21.83;14.82;;;;;;;;;;4992617;28;20233;-75
2021/10/14 07:01:18;;;;;;;20.98;13.80;;;;;;;;;;4993144;28;20213;-74
2021/10/14 07:03:47;;;;;;;24.60;15.38;;;;;;;;;;4992101;28;20197;-75
2021/10/14 07:06:15;;;;;;;19.33;14.82;;;;;;;;;;4991829;28;20738;-75
2021/10/14 07:08:42;;;;;;;20.63;14.25;;;;;;;;;;4990556;28;20207;-75
2021/10/14 07:11:09;;;;;;;22.05;15.70;;;;;;;;;;4993418;28;20205;-76
2021/10/14 07:13:37;;;;;;;19.23;13.90;;;;;;;;;;4991975;28;20572;-74
2021/10/14 07:16:04;;;;;;;23.02;17.45;;;;;;;;;;4992373;28;20221;-75
2021/10/14 07:18:31;;;;;;;25.50;16.80;;;;;;;;;;4990064;28;20606;-75
2021/10/14 07:21:01;;;;;;;20.17;13.88;;;;;;;;;;4993251;28;20684;-74
2021/10/14 07:23:29;;;;;;;19.27;15.20;;;;;;;;;;4992266;28;20219;-75
2021/10/14 07:25:56;;;;;;;23.85;17.08;;;;;;;;;;4990472;28;20290;-76
2021/10/14 07:28:23;;;;;;;21.23;15.48;;;;;;;;;;4992393;28;20201;-76
2021/10/14 07:30:52;;;;;;;24.30;18.00;;;;;;;;;;4991289;28;20272;-74
2021/10/14 07:33:19;;;;;;;25.88;17.70;;;;;;;;;;4988832;28;20618;-73
2021/10/14 07:35:46;;;;;;;22.38;16.63;;;;;;;;;;4973921;28;20206;-73
2021/10/14 07:38:14;;;;;;;25.10;15.40;;;;;;;;;;4975773;28;20249;-73
2021/10/14 07:40:43;;;;;;;24.23;16.23;;;;;;;;;;4992123;28;20205;-75
2021/10/14 07:43:11;;;;;;;22.73;15.13;;;;;;;;;;4990913;28;20205;-74
2021/10/14 07:45:38;;;;;;;25.38;17.35;;;;;;;;;;4989340;28;20950;-75
2021/10/14 07:48:07;;;;;;;25.27;16.00;;;;;;;;;;4992085;28;20213;-74
2021/10/14 07:50:34;;;;;;;21.13;16.27;;;;;;;;;;4990926;28;20316;-77
2021/10/14 07:53:01;;;;;;;24.60;15.93;;;;;;;;;;4984085;28;20287;-73
2021/10/14 07:55:29;;;;;;;19.58;14.60;;;;;;;;;;4991942;28;20197;-75
2021/10/14 07:57:56;;;;;;;18.88;15.13;;;;;;;;;;4976075;28;20654;-75
2021/10/14 08:00:23;;;;;;;20.58;15.10;;;;;;;;;;4989908;28;20198;-76
2021/10/14 08:02:50;;;;;;;22.83;15.95;;;;;;;;;;4989903;28;20324;-75
2021/10/14 08:05:18;;;;;;;21.90;15.25;;;;;;;;;;4992410;28;20735;-76
2021/10/14 08:07:46;;;;;;;22.15;14.93;;;;;;;;;;4986472;28;20304;-73
2021/10/14 08:10:13;;;;;;;19.85;14.85;;;;;;;;;;4990060;28;20596;-75
2021/10/14 08:12:43;;;;;;;23.73;16.35;;;;;;;;;;4992019;28;20691;-74
2021/10/14 08:15:10;;;;;;;24.65;18.13;;;;;;;;;;4990790;28;20244;-73
2021/10/14 08:17:37;;;;;;;20.00;14.77;;;;;;;;;;4981550;28;20577;-73
2021/10/14 08:20:04;;;;;;;20.38;15.90;;;;;;;;;;4990986;28;20193;-74
2021/10/14 08:22:31;;;;;;;17.55;15.65;;;;;;;;;;4991831;28;20711;-74
2021/10/14 08:24:59;;;;;;;18.48;14.23;;;;;;;;;;4987088;28;20337;-76
2021/10/14 08:27:26;;;;;;;22.08;16.23;;;;;;;;;;4990497;28;20565;-73
2021/10/14 08:29:54;;;;;;;19.83;15.35;;;;;;;;;;4988000;28;20217;-75
2021/10/14 08:32:21;;;;;;;20.70;15.38;;;;;;;;;;4988553;28;20728;-74
2021/10/14 08:34:48;;;;;;;19.40;14.90;;;;;;;;;;4977866;28;20201;-74
2021/10/14 08:37:20;;;;;;;19.88;16.85;;;;;;;;;;4988760;28;20198;-74
2021/10/14 08:39:47;;;;;;;19.95;15.68;;;;;;;;;;4992404;28;20669;-75
2021/10/14 08:42:15;;;;;;;15.95;14.25;;;;;;;;;;4991981;28;20201;-74
2021/10/14 08:44:42;;;;;;;17.33;12.02;;;;;;;;;;4990802;28;20260;-75
2021/10/14 08:47:12;;;;;;;23.50;15.25;;;;;;;;;;4984883;28;20684;-75
2021/10/14 08:49:44;;;;;;;17.92;13.15;;;;;;;;;;4989987;28;20608;-75
2021/10/14 08:52:11;;;;;;;16.98;12.25;;;;;;;;;;4989423;28;20662;-74
2021/10/14 08:54:38;;;;;;;22.40;16.95;;;;;;;;;;4989911;28;20204;-75
2021/10/14 08:57:05;;;;;;;22.45;13.63;;;;;;;;;;4987100;28;20248;-74
2021/10/14 08:59:32;;;;;;;22.35;17.17;;;;;;;;;;4990052;28;20201;-75
2021/10/14 09:02:14;;;;;;;22.02;18.30;;;;;;;;;;4982361;28;20677;-75
2021/10/14 09:04:43;;;;;;;26.05;19.10;;;;;;;;;;4988195;28;20637;-75
2021/10/14 09:07:10;;;;;;;23.58;19.63;;;;;;;;;;4989380;28;20688;-75
2021/10/14 09:09:38;;;;;;;24.70;17.85;;;;;;;;;;4990678;28;20817;-76
2021/10/14 09:12:05;;;;;;;23.58;19.35;;;;;;;;;;4990707;28;20296;-74
2021/10/14 09:14:32;;;;;;;24.55;18.83;;;;;;;;;;4991149;28;20660;-74
2021/10/14 09:16:59;;;;;;;23.42;17.38;;;;;;;;;;4992321;28;20677;-74
2021/10/14 09:19:29;;;;;;;21.50;17.17;;;;;;;;;;4985409;28;20244;-72
2021/10/14 09:21:59;;;;;;;24.00;17.80;;;;;;;;;;4988104;28;20220;-73
2021/10/14 09:24:30;;;;;;;19.85;15.90;;;;;;;;;;4992768;28;20205;-73
2021/10/14 09:27:00;;;;;;;23.08;17.38;;;;;;;;;;4991545;28;20340;-73
2021/10/14 09:29:28;;;;;;;25.27;19.30;;;;;;;;;;4992217;28;20201;-72
2021/10/14 09:31:56;;;;;;;28.55;17.40;;;;;;;;;;4988219;28;20279;-73
2021/10/14 09:34:37;;;;;;;26.50;19.90;;;;;;;;;;4993946;28;20197;-74
2021/10/14 09:37:07;;;;;;;21.70;17.45;;;;;;;;;;4988893;28;20193;-78
2021/10/14 09:39:34;;;;;;;22.25;18.20;;;;;;;;;;4994009;28;20224;-75
2021/10/14 09:42:01;;;;;;;22.48;17.58;;;;;;;;;;4991125;28;20656;-73
2021/10/14 09:44:28;;;;;;;21.13;14.95;;;;;;;;;;4992215;28;20209;-75
2021/10/14 09:46:57;;;;;;;21.33;16.55;;;;;;;;;;4993988;28;20217;-73
2021/10/14 09:49:27;;;;;;;20.05;16.40;;;;;;;;;;4993892;28;20233;-73
2021/10/14 09:51:55;;;;;;;19.98;15.30;;;;;;;;;;4994759;28;20198;-74
2021/10/14 09:54:23;;;;;;;20.85;16.35;;;;;;;;;;4990925;28;20208;-74
2021/10/14 09:56:51;;;;;;;18.17;14.52;;;;;;;;;;4987675;28;20205;-74
2021/10/14 09:59:18;;;;;;;21.88;16.00;;;;;;;;;;4990085;28;20198;-73
2021/10/14 10:01:45;;;;;;;21.88;17.63;;;;;;;;;;4990229;28;20281;-76
2021/10/14 10:04:12;;;;;;;22.08;17.20;;;;;;;;;;4988624;28;20208;-73
2021/10/14 10:06:40;;;;;;;22.85;17.15;;;;;;;;;;4994969;28;20202;-73
2021/10/14 10:09:11;;;;;;;22.30;16.67;;;;;;;;;;4994453;28;20268;-73
2021/10/14 10:11:43;;;;;;;20.52;15.07;;;;;;;;;;4994920;28;20627;-75
2021/10/14 10:14:11;;;;;;;18.92;16.35;;;;;;;;;;4993190;28;20200;-72
2021/10/14 10:16:38;;;;;;;21.17;16.05;;;;;;;;;;4993890;28;20221;-73
2021/10/14 10:19:07;;;;;;;20.60;16.63;;;;;;;;;;5005337;28;20652;-73
2021/10/14 10:21:44;;;;;;;19.60;16.42;;;;;;;;;;5013388;28;20192;-73
2021/10/14 10:24:30;;;;;;;19.40;14.40;;;;;;;;;;4980548;28;20213;-73
2021/10/14 10:26:59;;;;;;;21.30;17.25;;;;;;;;;;4997951;28;20200;-73
2021/10/14 10:29:41;;;;;;;20.90;16.00;;;;;;;;;;4993772;28;20204;-72
2021/10/14 10:32:14;;;;;;;18.15;15.10;;;;;;;;;;4990242;28;20301;-73
2021/10/14 10:37:33;;;;;;;15.07;13.25;;;;;;;;;;4989209;28;20201;-72
2021/10/14 10:40:02;;;;;;;16.67;13.23;;;;;;;;;;4989162;28;20719;-73
2021/10/14 10:42:34;;;;;;;16.77;14.98;;;;;;;;;;4986043;28;20573;-74
2021/10/14 10:45:08;;;;;;;28.00;20.50;;;;;;;;;;4993222;28;20256;-73
2021/10/14 10:47:42;;;;;;;45.05;31.60;;;;;;;;;;4991138;28;20304;-72
2021/10/14 10:50:10;;;;;;;54.45;34.13;;;;;;;;;;4986610;28;20190;-73
2021/10/14 10:52:38;;;;;;;47.40;32.15;;;;;;;;;;4989625;28;20198;-73
2021/10/14 10:55:13;;;;;;;50.67;34.05;;;;;;;;;;4993119;28;20193;-71
2021/10/14 10:57:48;;;;;;;46.28;32.50;;;;;;;;;;4993895;28;20252;-74
2021/10/14 11:00:15;;;;;;;49.90;30.70;;;;;;;;;;4992737;28;20672;-73
2021/10/14 11:02:42;;;;;;;38.90;29.15;;;;;;;;;;4984717;28;20206;-74
2021/10/14 11:05:09;;;;;;;43.38;29.40;;;;;;;;;;4980092;28;20256;-73
2021/10/14 11:07:37;;;;;;;43.17;31.17;;;;;;;;;;4988794;28;20218;-72
2021/10/14 11:10:04;;;;;;;41.40;28.67;;;;;;;;;;4987339;28;20271;-73
2021/10/14 11:12:32;;;;;;;42.33;28.58;;;;;;;;;;5004422;28;20237;-73
2021/10/14 11:15:14;;;;;;;38.92;26.15;;;;;;;;;;4991432;28;20194;-75
2021/10/14 11:17:41;;;;;;;36.33;25.40;;;;;;;;;;4993327;28;20637;-73
2021/10/14 11:20:09;;;;;;;37.42;23.90;;;;;;;;;;4974826;28;20202;-72
2021/10/14 11:22:37;;;;;;;32.80;24.30;;;;;;;;;;4976681;28;20209;-73
2021/10/14 11:25:14;;;;;;;35.97;25.65;;;;;;;;;;4982635;28;20213;-73
2021/10/14 11:27:44;;;;;;;31.27;23.58;;;;;;;;;;4991490;28;20236;-72
2021/10/14 11:30:18;;;;;;;33.28;24.55;;;;;;;;;;4977287;28;20228;-72
2021/10/14 11:32:53;;;;;;;28.83;22.35;;;;;;;;;;4973944;28;20205;-71
2021/10/14 11:35:23;;;;;;;28.15;22.05;;;;;;;;;;4983686;28;20208;-74
2021/10/14 11:37:50;;;;;;;26.20;20.70;;;;;;;;;;4986970;28;20704;-72
2021/10/14 11:40:32;;;;;;;27.42;20.58;;;;;;;;;;4991750;28;20202;-73
2021/10/14 11:42:59;;;;;;;27.25;20.08;;;;;;;;;;4984237;28;20220;-72
2021/10/14 11:45:28;;;;;;;28.08;19.33;;;;;;;;;;4990362;28;20705;-72
2021/10/14 11:47:55;;;;;;;22.85;18.52;;;;;;;;;;4988538;28;20220;-74
2021/10/14 11:50:24;;;;;;;28.15;18.55;;;;;;;;;;4991451;28;20205;-71
2021/10/14 11:52:59;;;;;;;21.63;17.58;;;;;;;;;;4974693;28;20205;-72
2021/10/14 11:55:26;;;;;;;23.38;18.08;;;;;;;;;;4990525;28;20228;-73
2021/10/14 11:57:56;;;;;;;22.80;17.63;;;;;;;;;;4992374;28;20194;-73
2021/10/14 12:00:24;;;;;;;27.95;18.25;;;;;;;;;;4990471;28;20649;-72
2021/10/14 12:02:52;;;;;;;24.65;18.20;;;;;;;;;;4987141;28;20201;-73
2021/10/14 12:05:20;;;;;;;21.52;18.10;;;;;;;;;;4991814;28;20186;-74
2021/10/14 12:07:49;;;;;;;22.20;17.00;;;;;;;;;;4976053;28;20224;-74
2021/10/14 12:10:30;;;;;;;22.90;18.08;;;;;;;;;;4985265;28;20205;-73
2021/10/14 12:13:01;;;;;;;23.25;19.00;;;;;;;;;;4991591;28;20194;-72
2021/10/14 12:15:28;;;;;;;23.23;17.63;;;;;;;;;;4991974;28;20201;-72
2021/10/14 12:17:57;;;;;;;24.60;17.25;;;;;;;;;;4985559;28;20531;-72
2021/10/14 12:20:24;;;;;;;20.77;16.80;;;;;;;;;;4991835;28;20197;-72
2021/10/14 12:22:52;;;;;;;21.58;16.75;;;;;;;;;;4984220;28;20202;-72
2021/10/14 12:25:25;;;;;;;18.63;15.80;;;;;;;;;;4988375;28;20259;-74
2021/10/14 12:27:53;;;;;;;22.80;16.27;;;;;;;;;;4988523;28;20236;-73
2021/10/14 12:30:24;;;;;;;28.27;18.92;;;;;;;;;;4982452;28;20268;-72
2021/10/14 12:32:52;;;;;;;21.95;17.00;;;;;;;;;;4990276;28;20202;-72
2021/10/14 12:35:24;;;;;;;18.15;16.08;;;;;;;;;;4990534;28;20201;-72
2021/10/14 12:38:03;;;;;;;22.98;16.55;;;;;;;;;;4984960;28;20197;-72
2021/10/14 12:40:30;;;;;;;17.23;15.35;;;;;;;;;;4990989;28;20194;-72
2021/10/14 12:43:04;;;;;;;19.73;14.50;;;;;;;;;;4987789;28;20650;-72
2021/10/14 12:45:54;;;;;;;20.00;13.93;;;;;;;;;;4990501;28;20208;-72
2021/10/14 12:48:30;;;;;;;18.27;14.35;;;;;;;;;;4988146;28;20351;-71
2021/10/14 12:51:07;;;;;;;18.42;15.52;;;;;;;;;;4991914;28;20193;-72
2021/10/14 12:53:38;;;;;;;20.02;15.95;;;;;;;;;;4988644;28;20207;-75
2021/10/14 12:56:05;;;;;;;16.75;14.20;;;;;;;;;;4995767;28;20280;-71
2021/10/14 12:58:32;;;;;;;15.73;14.10;;;;;;;;;;4995284;28;20232;-73
2021/10/14 13:01:00;;;;;;;18.50;14.88;;;;;;;;;;4999165;28;20205;-71
2021/10/14 13:03:27;;;;;;;15.02;13.15;;;;;;;;;;4985200;28;20206;-73
2021/10/14 13:05:54;;;;;;;17.38;13.80;;;;;;;;;;4994701;28;20213;-72
2021/10/14 13:08:23;;;;;;;18.45;14.30;;;;;;;;;;4994028;28;20648;-72
2021/10/14 13:10:50;;;;;;;15.48;13.02;;;;;;;;;;4995969;28;20304;-74
2021/10/14 13:13:17;;;;;;;13.77;12.10;;;;;;;;;;4995402;28;20201;-72
2021/10/14 13:15:44;;;;;;;12.57;11.25;;;;;;;;;;4995357;28;20565;-73
2021/10/14 13:18:11;;;;;;;12.55;11.23;;;;;;;;;;4991936;28;20224;-72
2021/10/14 13:20:39;;;;;;;14.70;11.77;;;;;;;;;;4995267;28;20704;-73
2021/10/14 13:23:07;;;;;;;14.18;11.15;;;;;;;;;;4986220;28;20205;-71
2021/10/14 13:25:36;;;;;;;13.20;11.90;;;;;;;;;;4986168;28;20217;-73
2021/10/14 13:28:03;;;;;;;14.25;11.90;;;;;;;;;;4994130;28;20218;-72
2021/10/14 13:30:30;;;;;;;13.48;11.65;;;;;;;;;;4994225;28;20245;-72
2021/10/14 13:32:57;;;;;;;17.88;11.45;;;;;;;;;;4994060;28;20209;-72
2021/10/14 13:35:24;;;;;;;10.90;9.80;;;;;;;;;;4995152;28;20202;-72
2021/10/14 13:37:51;;;;;;;12.05;10.50;;;;;;;;;;4989533;28;20202;-73
2021/10/14 13:40:18;;;;;;;11.57;10.32;;;;;;;;;;4977470;28;20213;-72
2021/10/14 13:42:50;;;;;;;12.93;10.90;;;;;;;;;;4994309;28;20220;-75
2021/10/14 13:45:17;;;;;;;11.30;9.55;;;;;;;;;;4993019;28;20206;-72
2021/10/14 13:47:45;;;;;;;13.70;10.40;;;;;;;;;;4989069;28;20206;-72
2021/10/14 13:50:12;;;;;;;11.95;10.70;;;;;;;;;;4983720;28;20638;-74
2021/10/14 13:52:39;;;;;;;11.15;10.05;;;;;;;;;;4992247;28;20638;-73
2021/10/14 13:55:07;;;;;;;12.23;10.25;;;;;;;;;;4994184;28;20198;-71
2021/10/14 13:57:35;;;;;;;10.75;9.25;;;;;;;;;;4995047;28;20197;-73
2021/10/14 14:00:07;;;;;;;10.55;9.35;;;;;;;;;;4993922;28;20627;-72
2021/10/14 14:02:36;;;;;;;11.18;9.20;;;;;;;;;;4984569;28;20202;-71
2021/10/14 14:05:03;;;;;;;8.95;7.90;;;;;;;;;;4994014;28;20592;-72
2021/10/14 14:07:30;;;;;;;9.00;8.10;;;;;;;;;;4991971;28;20646;-71
2021/10/14 14:09:57;;;;;;;10.10;8.57;;;;;;;;;;4980924;28;20221;-72
2021/10/14 14:12:25;;;;;;;9.98;8.80;;;;;;;;;;4993101;28;20232;-73
2021/10/14 14:14:52;;;;;;;10.70;8.70;;;;;;;;;;4994382;28;20204;-73
2021/10/14 14:17:20;;;;;;;9.55;8.02;;;;;;;;;;4984130;28;20581;-72
2021/10/14 14:19:47;;;;;;;12.38;8.90;;;;;;;;;;4993776;28;20197;-71
2021/10/14 14:22:14;;;;;;;9.25;7.35;;;;;;;;;;4992795;28;20193;-72
2021/10/14 14:24:41;;;;;;;12.45;8.90;;;;;;;;;;4993052;28;20687;-72
2021/10/14 14:27:08;;;;;;;9.02;8.13;;;;;;;;;;4990793;28;20256;-71
2021/10/14 14:29:35;;;;;;;10.35;8.40;;;;;;;;;;4990190;28;20225;-74
2021/10/14 14:32:02;;;;;;;10.48;8.48;;;;;;;;;;4983386;28;20272;-72
2021/10/14 14:34:31;;;;;;;8.63;7.80;;;;;;;;;;4994190;28;20202;-72